Time;durP1;ratioP1;P1;durP2;ratioP2;P2;SDS_P1;SDS_P2;PMS_P1;PMS_P2;Temp;Humidity;BMP_temperature;BMP_pressure;BME280_temperature;BME280_humidity;BME280_pressure;Samples;Min_cycle;Max_cycle;Signal;HPM_P1;HPM_P2
2023/05/21 00:01:38;;;;;;;10.40;6.35;;;13.70;87.50;;;;;;6178218;22;92521;-76
2023/05/21 00:04:08;;;;;;;7.85;6.60;;;13.60;87.80;;;;;;6179923;22;92218;-75
2023/05/21 00:06:36;;;;;;;7.88;7.03;;;13.60;87.80;;;;;;6178143;22;93357;-75
2023/05/21 00:09:03;;;;;;;8.70;6.93;;;13.60;87.80;;;;;;6177741;22;92657;-76
2023/05/21 00:11:29;;;;;;;7.97;6.72;;;13.50;87.70;;;;;;6177566;22;92586;-76
2023/05/21 00:13:55;;;;;;;10.57;6.90;;;13.50;88.90;;;;;;6182488;22;92355;-75
2023/05/21 00:16:21;;;;;;;9.10;6.97;;;13.40;88.00;;;;;;6182589;22;94498;-75
2023/05/21 00:18:48;;;;;;;11.05;7.05;;;13.40;88.30;;;;;;6183941;22;94221;-75
2023/05/21 00:21:21;;;;;;;10.93;7.00;;;13.40;89.10;;;;;;6183754;22;92542;-75
2023/05/21 00:23:50;;;;;;;11.60;7.90;;;13.30;88.80;;;;;;6182502;22;92553;-75
2023/05/21 00:26:15;;;;;;;10.73;7.72;;;13.30;89.80;;;;;;6183110;22;93553;-75
2023/05/21 00:28:41;;;;;;;10.05;7.78;;;13.30;90.00;;;;;;6182541;22;93418;-75
2023/05/21 00:31:06;;;;;;;11.02;7.70;;;13.20;90.00;;;;;;6184502;22;92455;-75
2023/05/21 00:33:32;;;;;;;13.20;8.40;;;13.20;90.30;;;;;;6183337;22;91809;-75
2023/05/21 00:35:58;;;;;;;10.75;7.57;;;13.10;90.50;;;;;;6182941;22;93481;-75
2023/05/21 00:38:26;;;;;;;10.35;8.07;;;13.10;90.40;;;;;;6182840;22;93909;-74
2023/05/21 00:40:52;;;;;;;10.63;8.13;;;13.10;90.40;;;;;;6206304;22;93446;-74
2023/05/21 00:43:18;;;;;;;12.20;8.95;;;13.10;90.40;;;;;;6183544;22;92057;-74
2023/05/21 00:45:45;;;;;;;10.30;8.13;;;13.10;90.40;;;;;;6183757;22;94184;-75
2023/05/21 00:48:12;;;;;;;14.23;8.52;;;13.00;90.50;;;;;;6183205;22;92501;-74
2023/05/21 00:50:39;;;;;;;10.95;8.20;;;13.00;90.60;;;;;;6183561;22;92603;-75
2023/05/21 00:53:09;;;;;;;11.27;8.50;;;13.00;90.60;;;;;;6182562;22;92762;-75
2023/05/21 00:55:36;;;;;;;11.57;8.70;;;13.00;90.70;;;;;;6182540;22;93125;-75
2023/05/21 00:58:03;;;;;;;11.07;8.63;;;12.90;90.70;;;;;;6183634;22;93477;-75
2023/05/21 01:00:33;;;;;;;12.77;9.13;;;12.90;90.90;;;;;;6183319;22;92538;-75
2023/05/21 01:03:03;;;;;;;14.75;9.15;;;12.80;90.90;;;;;;6182604;22;93652;-75
2023/05/21 01:05:29;;;;;;;13.48;9.05;;;12.80;91.10;;;;;;6182197;22;94760;-75
2023/05/21 01:07:56;;;;;;;13.38;10.32;;;12.80;91.20;;;;;;6182752;22;94723;-75
2023/05/21 01:10:23;;;;;;;12.02;8.88;;;12.80;91.10;;;;;;6182757;22;92360;-75
2023/05/21 01:12:51;;;;;;;11.15;8.25;;;12.80;91.20;;;;;;6184031;22;92552;-75
2023/05/21 01:15:17;;;;;;;10.60;9.35;;;12.80;91.30;;;;;;6182797;22;93555;-75
2023/05/21 01:17:44;;;;;;;13.50;8.90;;;12.80;91.40;;;;;;6182464;22;92884;-75
2023/05/21 01:20:11;;;;;;;12.80;9.73;;;12.70;91.00;;;;;;6181223;22;92191;-75
2023/05/21 01:22:52;;;;;;;12.93;9.38;;;12.70;91.40;;;;;;6180993;22;91704;-75
2023/05/21 01:25:18;;;;;;;14.60;10.27;;;12.70;91.30;;;;;;6182158;22;94065;-75
2023/05/21 01:27:44;;;;;;;14.05;10.35;;;12.70;91.60;;;;;;6181835;22;93381;-75
2023/05/21 01:30:10;;;;;;;15.07;10.45;;;12.60;91.60;;;;;;6181731;22;93533;-76
2023/05/21 01:32:57;;;;;;;13.65;9.70;;;12.60;91.60;;;;;;6181186;22;92299;-75
2023/05/21 01:35:33;;;;;;;13.50;10.32;;;12.60;91.40;;;;;;6182731;22;93739;-75
2023/05/21 01:38:11;;;;;;;15.07;11.43;;;12.60;91.50;;;;;;6181007;22;93879;-75
2023/05/21 01:40:45;;;;;;;15.07;10.20;;;12.60;92.00;;;;;;6181521;22;92586;-75
2023/05/21 01:43:13;;;;;;;13.25;9.73;;;12.60;91.70;;;;;;6183231;22;92407;-75
2023/05/21 01:45:40;;;;;;;14.02;10.45;;;12.60;91.70;;;;;;6182796;22;92718;-75
2023/05/21 01:48:08;;;;;;;14.27;9.93;;;12.60;91.50;;;;;;6182289;22;93270;-75
2023/05/21 01:50:36;;;;;;;18.02;10.77;;;12.50;91.70;;;;;;6182241;22;92078;-75
2023/05/21 01:53:04;;;;;;;19.00;11.43;;;12.60;91.80;;;;;;6181819;22;92302;-75
2023/05/21 01:55:30;;;;;;;15.57;11.43;;;12.60;92.00;;;;;;6181022;22;95173;-75
2023/05/21 01:57:58;;;;;;;16.45;11.13;;;12.60;92.10;;;;;;6182290;22;94266;-75
2023/05/21 02:00:27;;;;;;;16.70;11.23;;;12.50;91.90;;;;;;6182462;22;92587;-75
2023/05/21 02:02:53;;;;;;;14.35;10.65;;;12.50;92.20;;;;;;6182052;22;92492;-76
2023/05/21 02:05:18;;;;;;;15.60;11.82;;;12.50;92.30;;;;;;6180081;22;93729;-75
2023/05/21 02:07:44;;;;;;;14.32;10.50;;;12.50;92.30;;;;;;6193866;22;93322;-75
2023/05/21 02:10:11;;;;;;;15.55;10.77;;;12.50;92.30;;;;;;6184225;22;92481;-75
2023/05/21 02:12:37;;;;;;;15.70;10.27;;;12.50;92.30;;;;;;6183294;22;92078;-75
2023/05/21 02:15:03;;;;;;;18.00;10.80;;;12.50;92.20;;;;;;6182085;22;93728;-75
2023/05/21 02:17:32;;;;;;;14.35;10.30;;;12.50;92.60;;;;;;6181901;22;95002;-75
2023/05/21 02:20:09;;;;;;;17.60;10.70;;;12.50;92.50;;;;;;6181243;22;93474;-75
2023/05/21 02:22:36;;;;;;;13.88;11.18;;;12.40;92.50;;;;;;6182950;22;92455;-75
2023/05/21 02:25:02;;;;;;;14.32;10.73;;;12.40;92.50;;;;;;6182559;22;92603;-75
2023/05/21 02:27:30;;;;;;;20.63;12.25;;;12.50;92.40;;;;;;6182833;22;92905;-75
2023/05/21 02:29:56;;;;;;;15.35;10.80;;;12.50;92.60;;;;;;6182625;22;92932;-75
2023/05/21 02:32:22;;;;;;;15.50;11.15;;;12.40;92.70;;;;;;6182469;22;92289;-75
2023/05/21 02:34:48;;;;;;;14.10;10.77;;;12.40;92.60;;;;;;6182956;22;93943;-75
2023/05/21 02:37:14;;;;;;;16.40;12.30;;;12.40;92.80;;;;;;6183531;22;93927;-75
2023/05/21 02:39:40;;;;;;;14.02;10.63;;;12.40;92.50;;;;;;6183276;22;92491;-75
2023/05/21 02:42:05;;;;;;;13.30;11.18;;;12.50;92.60;;;;;;6183116;22;92268;-75
2023/05/21 02:44:31;;;;;;;17.45;11.13;;;12.40;92.60;;;;;;6180896;22;95036;-75
2023/05/21 02:46:57;;;;;;;19.88;11.45;;;12.40;92.50;;;;;;6182176;22;94307;-75
2023/05/21 02:49:22;;;;;;;16.42;10.63;;;12.40;92.60;;;;;;6183005;22;92408;-75
2023/05/21 02:51:48;;;;;;;16.98;11.32;;;12.50;92.50;;;;;;6184065;22;92136;-75
2023/05/21 02:54:14;;;;;;;18.08;11.57;;;12.40;92.40;;;;;;6182898;22;94327;-75
2023/05/21 02:56:40;;;;;;;18.33;11.75;;;12.40;92.40;;;;;;6182156;22;92706;-75
2023/05/21 02:59:06;;;;;;;16.27;11.57;;;12.40;92.60;;;;;;6182667;22;92540;-76
2023/05/21 03:01:31;;;;;;;18.30;11.48;;;12.40;92.80;;;;;;6183069;22;91549;-74
2023/05/21 03:03:57;;;;;;;14.05;11.70;;;12.40;92.70;;;;;;6183321;22;93439;-74
2023/05/21 03:06:22;;;;;;;17.25;11.65;;;12.40;92.80;;;;;;6181737;22;94928;-75
2023/05/21 03:08:48;;;;;;;14.13;11.23;;;12.30;92.70;;;;;;6205593;22;93390;-76
2023/05/21 03:11:14;;;;;;;19.65;12.30;;;12.40;92.60;;;;;;6183073;22;92540;-75
2023/05/21 03:13:41;;;;;;;15.05;11.38;;;12.30;92.70;;;;;;6182422;22;93255;-75
2023/05/21 03:16:07;;;;;;;17.77;11.70;;;12.30;92.70;;;;;;6181314;22;93887;-75
2023/05/21 03:18:32;;;;;;;14.98;10.85;;;12.30;92.80;;;;;;6180715;22;92434;-74
2023/05/21 03:20:58;;;;;;;17.08;11.02;;;12.30;92.70;;;;;;6182563;22;92414;-75
2023/05/21 03:23:24;;;;;;;13.68;11.13;;;12.30;93.00;;;;;;6183080;22;92824;-75
2023/05/21 03:25:50;;;;;;;16.88;11.27;;;12.30;93.00;;;;;;6182256;22;92708;-75
2023/05/21 03:28:17;;;;;;;12.50;10.27;;;12.30;92.90;;;;;;6183208;22;93114;-75
2023/05/21 03:30:45;;;;;;;16.08;10.80;;;12.30;93.00;;;;;;6183163;22;92413;-75
2023/05/21 03:33:15;;;;;;;15.10;11.18;;;12.30;93.00;;;;;;6181806;22;95071;-75
2023/05/21 03:35:41;;;;;;;16.52;11.23;;;12.30;93.00;;;;;;6181962;22;94246;-75
2023/05/21 03:38:06;;;;;;;17.85;10.90;;;12.30;92.90;;;;;;6182991;22;92470;-75
2023/05/21 03:40:32;;;;;;;14.70;11.43;;;12.30;93.10;;;;;;6182395;22;92412;-75
2023/05/21 03:42:58;;;;;;;15.20;10.45;;;12.30;92.90;;;;;;6183456;22;92700;-75
2023/05/21 03:45:23;;;;;;;14.30;10.25;;;12.30;92.90;;;;;;6181811;22;92617;-75
2023/05/21 03:47:49;;;;;;;16.35;10.32;;;12.30;92.80;;;;;;6182945;22;92371;-75
2023/05/21 03:50:15;;;;;;;17.90;11.55;;;12.30;93.00;;;;;;6182849;22;91965;-75
2023/05/21 03:52:41;;;;;;;16.35;11.00;;;12.30;92.90;;;;;;6180280;22;96615;-75
2023/05/21 03:55:07;;;;;;;16.83;11.75;;;12.20;93.00;;;;;;6183411;22;93320;-76
2023/05/21 03:57:33;;;;;;;16.85;10.90;;;12.20;93.00;;;;;;6182178;22;94489;-75
2023/05/21 03:59:58;;;;;;;18.50;12.35;;;12.30;93.00;;;;;;6182791;22;92572;-75
2023/05/21 04:02:27;;;;;;;16.95;10.75;;;12.30;93.20;;;;;;6182747;22;94040;-76
2023/05/21 04:04:54;;;;;;;16.70;10.57;;;12.30;93.10;;;;;;6180314;22;96503;-75
2023/05/21 04:07:21;;;;;;;15.57;10.18;;;12.30;93.10;;;;;;6181498;22;92293;-75
2023/05/21 04:09:46;;;;;;;13.65;9.60;;;12.30;93.10;;;;;;6183267;22;92376;-75
2023/05/21 04:12:12;;;;;;;16.17;10.00;;;12.30;93.10;;;;;;6182353;22;94015;-75
2023/05/21 04:14:38;;;;;;;14.25;9.43;;;12.30;93.00;;;;;;6182634;22;92960;-75
2023/05/21 04:17:04;;;;;;;14.27;10.32;;;12.30;93.00;;;;;;6184113;22;92475;-75
2023/05/21 04:19:31;;;;;;;12.32;10.63;;;12.30;93.10;;;;;;6182406;22;92543;-76
2023/05/21 04:21:57;;;;;;;13.73;10.13;;;12.30;93.10;;;;;;6180627;22;96469;-75
2023/05/21 04:24:23;;;;;;;14.05;9.90;;;12.30;93.10;;;;;;6182196;22;93614;-75
2023/05/21 04:26:49;;;;;;;16.38;10.55;;;12.30;93.00;;;;;;6183003;22;92534;-75
2023/05/21 04:29:19;;;;;;;14.18;9.68;;;12.40;92.90;;;;;;6182668;22;92443;-75
2023/05/21 04:31:48;;;;;;;13.45;9.98;;;12.40;93.00;;;;;;6181416;22;96083;-75
2023/05/21 04:34:16;;;;;;;14.00;10.23;;;12.40;93.10;;;;;;6182392;22;93304;-75
2023/05/21 04:36:44;;;;;;;14.32;10.40;;;12.40;92.80;;;;;;6182199;22;92396;-75
2023/05/21 04:39:11;;;;;;;13.07;10.55;;;12.50;92.90;;;;;;6183278;22;92128;-75
2023/05/21 04:41:37;;;;;;;12.20;9.70;;;12.50;92.80;;;;;;6182423;22;93937;-75
2023/05/21 04:44:07;;;;;;;14.73;10.10;;;12.60;92.70;;;;;;6182467;22;93238;-75
2023/05/21 04:46:33;;;;;;;11.98;9.38;;;12.60;92.60;;;;;;6181049;22;93302;-75
2023/05/21 04:49:02;;;;;;;13.60;9.82;;;12.70;92.70;;;;;;6184397;22;92621;-75
2023/05/21 04:51:29;;;;;;;14.13;9.20;;;12.70;92.60;;;;;;6183292;22;93362;-76
2023/05/21 04:53:55;;;;;;;13.52;9.98;;;12.70;92.50;;;;;;6182603;22;92482;-75
2023/05/21 04:56:21;;;;;;;17.45;10.27;;;12.80;92.60;;;;;;6182112;22;92350;-75
2023/05/21 04:58:55;;;;;;;13.60;9.45;;;12.80;92.40;;;;;;4997217;27;1374752;-74
2023/05/21 05:01:28;;;;;;;14.80;9.90;;;12.90;92.60;;;;;;4983126;28;86090;-74
2023/05/21 05:03:54;;;;;;;13.93;9.30;;;12.90;92.40;;;;;;4985529;28;85978;-75
2023/05/21 05:06:20;;;;;;;12.40;9.35;;;13.00;92.40;;;;;;4983590;28;87295;-75
2023/05/21 05:08:46;;;;;;;12.45;8.98;;;13.00;92.10;;;;;;4983777;28;86913;-74
2023/05/21 05:11:12;;;;;;;12.82;9.25;;;13.10;92.20;;;;;;5001291;28;86282;-74
2023/05/21 05:13:40;;;;;;;10.48;8.98;;;13.20;92.20;;;;;;5033458;28;86711;-75
2023/05/21 05:16:06;;;;;;;12.88;8.88;;;13.20;91.90;;;;;;5034880;27;86188;-75
2023/05/21 05:18:33;;;;;;;13.95;9.38;;;13.30;91.80;;;;;;5031514;28;88793;-77
2023/05/21 05:20:59;;;;;;;11.45;8.27;;;13.30;91.70;;;;;;5033681;27;86798;-77
2023/05/21 05:23:25;;;;;;;13.07;8.93;;;13.40;91.70;;;;;;5034101;27;86926;-77
2023/05/21 05:25:51;;;;;;;10.88;8.95;;;13.50;91.60;;;;;;5033132;27;87350;-77
2023/05/21 05:28:17;;;;;;;14.63;8.00;;;13.50;91.50;;;;;;5034332;27;87449;-77
2023/05/21 05:30:43;;;;;;;13.20;8.55;;;13.60;91.40;;;;;;5033815;27;85861;-77
2023/05/21 05:33:08;;;;;;;16.17;9.20;;;13.70;91.40;;;;;;5032945;27;86851;-77
2023/05/21 05:35:34;;;;;;;12.05;8.30;;;13.70;91.50;;;;;;5032372;28;89284;-77
2023/05/21 05:37:59;;;;;;;11.95;9.20;;;13.80;91.10;;;;;;5034016;27;86444;-77
2023/05/21 05:40:25;;;;;;;11.32;8.75;;;13.90;91.20;;;;;;5033934;27;86419;-75
2023/05/21 05:42:51;;;;;;;12.40;8.77;;;14.00;91.20;;;;;;5034487;28;85815;-74
2023/05/21 05:45:18;;;;;;;11.82;8.77;;;14.10;91.00;;;;;;5033051;27;87419;-74
2023/05/21 05:47:43;;;;;;;11.52;8.82;;;14.10;91.00;;;;;;5032192;28;89154;-75
2023/05/21 05:50:10;;;;;;;12.48;8.23;;;14.20;91.00;;;;;;5033249;27;86034;-75
2023/05/21 05:52:35;;;;;;;10.32;8.10;;;14.30;90.80;;;;;;5032237;27;86492;-75
2023/05/21 05:55:01;;;;;;;10.80;8.15;;;14.30;90.50;;;;;;5033512;28;87433;-75
2023/05/21 05:57:27;;;;;;;11.25;8.88;;;14.40;90.50;;;;;;5030528;28;89811;-75
2023/05/21 05:59:52;;;;;;;11.45;9.02;;;14.50;90.10;;;;;;5033071;27;86098;-75
2023/05/21 06:02:18;;;;;;;11.57;8.63;;;14.50;90.10;;;;;;5033268;27;86336;-75
2023/05/21 06:04:44;;;;;;;10.95;8.80;;;14.60;89.70;;;;;;5030914;28;89812;-75
2023/05/21 06:07:10;;;;;;;10.38;8.20;;;14.60;89.70;;;;;;5033376;28;87733;-75
2023/05/21 06:09:37;;;;;;;10.00;8.63;;;14.60;89.70;;;;;;5023456;27;85999;-75
2023/05/21 06:12:04;;;;;;;10.70;8.40;;;14.60;89.80;;;;;;5019969;28;85998;-74
2023/05/21 06:14:30;;;;;;;13.50;8.30;;;14.60;88.70;;;;;;5018062;28;89323;-77
2023/05/21 06:16:55;;;;;;;10.32;8.05;;;14.60;89.20;;;;;;5018284;28;86730;-75
2023/05/21 06:21:47;;;;;;;11.23;8.30;;;14.80;89.50;;;;;;5020181;28;86048;-76
2023/05/21 06:24:13;;;;;;;8.98;7.93;;;14.90;89.50;;;;;;5010229;28;87133;-76
2023/05/21 06:26:38;;;;;;;11.15;7.93;;;15.00;89.30;;;;;;5019631;28;86325;-77
2023/05/21 06:29:04;;;;;;;12.55;8.63;;;15.10;88.50;;;;;;5019072;28;86274;-76
2023/05/21 06:31:31;;;;;;;11.02;7.97;;;15.30;88.30;;;;;;5019257;28;86511;-76
2023/05/21 06:33:58;;;;;;;13.20;8.75;;;15.30;88.20;;;;;;5019619;28;87199;-77
2023/05/21 06:36:28;;;;;;;12.05;8.05;;;15.40;87.90;;;;;;5019263;28;86329;-78
2023/05/21 06:38:55;;;;;;;11.48;8.45;;;15.50;86.90;;;;;;5018966;28;86186;-77
2023/05/21 06:41:21;;;;;;;11.93;7.95;;;15.70;86.30;;;;;;5018550;28;86202;-77
2023/05/21 06:43:46;;;;;;;9.93;7.70;;;15.70;86.40;;;;;;5018900;28;87061;-76
2023/05/21 06:46:12;;;;;;;11.05;8.55;;;15.80;87.00;;;;;;5019445;28;86923;-77
2023/05/21 06:48:38;;;;;;;12.32;7.93;;;15.90;86.40;;;;;;5019112;28;87570;-77
2023/05/21 06:51:03;;;;;;;9.50;8.07;;;16.00;85.40;;;;;;5019254;28;85945;-76
2023/05/21 06:53:29;;;;;;;10.20;7.60;;;16.10;86.30;;;;;;5019059;28;87686;-76
2023/05/21 06:55:55;;;;;;;10.40;8.27;;;16.30;85.50;;;;;;5017968;28;86310;-77
2023/05/21 06:58:21;;;;;;;9.73;7.95;;;16.50;83.90;;;;;;5017863;28;87345;-77
2023/05/21 07:00:47;;;;;;;11.93;8.25;;;16.60;83.30;;;;;;5019671;28;86358;-78
2023/05/21 07:03:13;;;;;;;11.10;8.60;;;16.80;82.50;;;;;;5018067;28;86945;-77
2023/05/21 07:05:38;;;;;;;12.45;8.50;;;16.90;80.90;;;;;;5014881;28;89482;-76
2023/05/21 07:08:04;;;;;;;12.82;8.05;;;17.00;81.00;;;;;;5016580;28;86663;-76
2023/05/21 07:10:29;;;;;;;10.57;8.15;;;17.00;81.70;;;;;;5017830;28;86184;-77
2023/05/21 07:12:55;;;;;;;11.60;8.73;;;17.20;81.90;;;;;;5015247;28;87424;-78
2023/05/21 07:15:21;;;;;;;11.73;8.13;;;17.50;80.40;;;;;;5012923;28;89398;-77
2023/05/21 07:17:46;;;;;;;10.02;8.02;;;17.70;79.50;;;;;;5013745;28;86256;-78
2023/05/21 07:20:12;;;;;;;11.18;8.70;;;17.90;77.80;;;;;;5012377;28;86575;-76
2023/05/21 07:22:38;;;;;;;11.25;8.00;;;18.00;77.90;;;;;;5015307;28;86934;-77
2023/05/21 07:25:05;;;;;;;11.35;8.85;;;18.20;78.60;;;;;;5018548;28;87643;-77
2023/05/21 07:27:31;;;;;;;14.95;9.13;;;18.30;77.50;;;;;;5015909;28;86565;-79
2023/05/21 07:29:56;;;;;;;14.00;8.73;;;18.40;76.00;;;;;;5017860;28;86896;-81
2023/05/21 07:32:22;;;;;;;9.85;8.07;;;18.50;76.30;;;;;;5015810;28;90959;-82
2023/05/21 07:34:47;;;;;;;10.95;8.05;;;18.70;77.30;;;;;;5016803;28;88885;-79
2023/05/21 07:37:13;;;;;;;10.82;8.20;;;18.60;74.30;;;;;;5019286;28;86359;-75
2023/05/21 07:39:39;;;;;;;12.05;8.68;;;18.60;75.70;;;;;;5017531;28;86482;-75
2023/05/21 07:42:05;;;;;;;15.02;8.95;;;18.70;76.20;;;;;;5017956;28;86902;-75
2023/05/21 07:44:30;;;;;;;13.15;8.35;;;18.70;74.40;;;;;;5017510;28;86090;-75
2023/05/21 07:46:56;;;;;;;10.45;8.30;;;18.70;76.30;;;;;;5015823;28;86684;-75
2023/05/21 07:49:22;;;;;;;10.85;8.52;;;18.70;75.30;;;;;;5016002;28;86202;-75
2023/05/21 07:51:49;;;;;;;10.15;8.32;;;18.70;74.80;;;;;;5018207;28;87747;-78
2023/05/21 07:54:15;;;;;;;11.23;8.32;;;18.70;74.60;;;;;;5017808;28;86842;-78
2023/05/21 07:56:41;;;;;;;10.15;7.97;;;18.80;74.90;;;;;;5017755;28;86649;-75
2023/05/21 07:59:06;;;;;;;10.55;7.95;;;18.90;75.60;;;;;;5017812;28;86551;-75
2023/05/21 08:01:32;;;;;;;13.15;8.57;;;19.10;75.30;;;;;;5017857;28;87453;-76
2023/05/21 08:04:04;;;;;;;9.88;8.80;;;19.30;75.30;;;;;;5017107;28;88932;-76
2023/05/21 08:06:30;;;;;;;14.25;9.50;;;19.40;75.00;;;;;;5018207;28;86167;-75
2023/05/21 08:08:56;;;;;;;11.10;8.50;;;19.60;72.80;;;;;;5017900;28;86924;-80
2023/05/21 08:11:22;;;;;;;10.40;8.73;;;19.50;73.90;;;;;;5016070;28;88038;-78
2023/05/21 08:13:48;;;;;;;10.57;8.52;;;19.60;72.70;;;;;;5016429;28;88583;-84
2023/05/21 08:16:15;;;;;;;12.18;8.77;;;19.70;72.20;;;;;;5017724;28;86108;-86
2023/05/21 08:18:40;;;;;;;11.63;8.63;;;19.80;72.30;;;;;;5018380;28;86845;-86
2023/05/21 08:21:06;;;;;;;12.50;9.57;;;19.70;71.90;;;;;;5017045;28;89514;-84
2023/05/21 08:23:32;;;;;;;14.88;9.18;;;19.90;71.90;;;;;;5017343;28;88458;-86
2023/05/21 08:25:57;;;;;;;11.13;8.68;;;19.90;70.20;;;;;;5018326;28;86660;-85
2023/05/21 08:28:23;;;;;;;11.70;9.10;;;20.00;71.90;;;;;;5017482;28;86196;-81
2023/05/21 08:30:48;;;;;;;10.27;8.68;;;20.00;70.90;;;;;;5017414;28;90575;-76
2023/05/21 08:33:14;;;;;;;11.73;9.85;;;20.10;72.10;;;;;;5017421;28;86984;-75
2023/05/21 08:35:40;;;;;;;11.18;9.75;;;20.20;70.80;;;;;;5017063;28;86426;-75
2023/05/21 08:38:06;;;;;;;12.02;9.77;;;20.20;69.70;;;;;;5017290;28;86505;-75
2023/05/21 08:40:33;;;;;;;13.48;9.27;;;20.30;70.70;;;;;;5016691;28;87689;-75
2023/05/21 08:42:59;;;;;;;10.10;9.07;;;20.30;70.90;;;;;;5018294;28;86911;-76
2023/05/21 08:45:26;;;;;;;10.32;8.80;;;20.40;70.20;;;;;;5017056;28;86226;-75
2023/05/21 08:47:57;;;;;;;13.23;8.93;;;20.40;70.90;;;;;;5015826;28;86035;-75
2023/05/21 08:50:26;;;;;;;10.27;8.40;;;20.60;70.20;;;;;;5016533;28;87232;-75
2023/05/21 08:52:54;;;;;;;10.68;8.88;;;20.80;70.70;;;;;;5016866;28;87129;-75
2023/05/21 08:55:22;;;;;;;9.18;7.00;;;21.00;69.10;;;;;;5017416;28;86102;-75
2023/05/21 08:57:49;;;;;;;15.75;9.48;;;21.30;70.70;;;;;;5016365;28;86335;-75
2023/05/21 09:00:15;;;;;;;13.02;9.65;;;21.50;65.60;;;;;;5016720;28;86364;-75
2023/05/21 09:02:42;;;;;;;11.20;9.18;;;21.30;66.10;;;;;;5016503;28;86675;-76
2023/05/21 09:05:08;;;;;;;9.93;8.93;;;21.40;68.50;;;;;;5016140;28;89278;-75
2023/05/21 09:08:05;;;;;;;13.02;9.77;;;21.50;66.70;;;;;;5016368;28;86431;-75
2023/05/21 09:10:37;;;;;;;16.55;10.82;;;21.40;64.90;;;;;;5015777;28;86765;-75
2023/05/21 09:13:04;;;;;;;12.17;10.13;;;21.40;66.30;;;;;;5016201;28;86553;-75
2023/05/21 09:15:30;;;;;;;12.30;9.75;;;21.30;65.90;;;;;;5015667;28;86142;-75
2023/05/21 09:17:56;;;;;;;14.48;9.02;;;21.20;66.20;;;;;;5016554;28;86657;-76
2023/05/21 09:20:26;;;;;;;10.90;9.20;;;21.20;69.10;;;;;;5015505;28;87413;-75
2023/05/21 09:22:54;;;;;;;11.30;10.15;;;21.40;66.10;;;;;;5016125;28;86725;-75
2023/05/21 09:25:26;;;;;;;11.98;10.55;;;21.50;67.30;;;;;;5013910;28;86241;-75
2023/05/21 09:27:53;;;;;;;12.90;11.30;;;21.60;65.20;;;;;;5016512;28;86671;-78
2023/05/21 09:30:19;;;;;;;13.88;10.40;;;21.50;64.30;;;;;;5013652;28;89187;-74
2023/05/21 09:32:50;;;;;;;13.95;11.02;;;21.40;66.70;;;;;;5014791;28;86599;-77
2023/05/21 09:35:16;;;;;;;13.63;10.57;;;21.50;65.50;;;;;;5015646;28;86103;-78
2023/05/21 09:37:47;;;;;;;11.50;9.88;;;21.50;67.00;;;;;;5014616;28;86524;-79
2023/05/21 09:40:14;;;;;;;14.13;10.43;;;21.60;67.50;;;;;;5017838;28;88116;-82
2023/05/21 09:42:46;;;;;;;12.10;9.45;;;21.70;66.00;;;;;;5015932;28;86359;-83
2023/05/21 09:45:16;;;;;;;13.07;9.20;;;21.80;67.60;;;;;;5017975;28;86121;-79
2023/05/21 09:47:43;;;;;;;11.77;9.38;;;21.90;66.50;;;;;;5018741;28;87023;-80
2023/05/21 09:50:16;;;;;;;14.77;10.88;;;22.20;65.80;;;;;;5018066;28;90972;-80
2023/05/21 09:52:42;;;;;;;12.40;9.68;;;22.30;65.90;;;;;;5018423;28;86815;-77
2023/05/21 09:55:12;;;;;;;13.00;11.00;;;22.40;64.00;;;;;;5021149;28;86495;-79
2023/05/21 09:57:45;;;;;;;13.73;11.05;;;22.50;63.40;;;;;;5017190;28;86317;-78
2023/05/21 10:00:26;;;;;;;12.48;9.85;;;22.60;65.40;;;;;;5017301;28;89161;-79
2023/05/21 10:02:56;;;;;;;16.05;10.30;;;22.80;64.80;;;;;;5019029;28;86303;-79
2023/05/21 10:05:28;;;;;;;11.82;10.57;;;23.10;64.60;;;;;;5017399;28;87602;-77
2023/05/21 10:08:03;;;;;;;11.50;9.50;;;23.40;64.20;;;;;;5018196;28;86330;-78
2023/05/21 10:10:30;;;;;;;13.38;10.00;;;23.40;63.30;;;;;;5019464;28;88485;-77
2023/05/21 10:13:09;;;;;;;16.40;10.95;;;23.50;62.90;;;;;;5018606;28;86545;-77
2023/05/21 10:15:39;;;;;;;20.70;10.68;;;23.70;62.20;;;;;;5017615;28;86075;-78
2023/05/21 10:18:06;;;;;;;10.95;9.43;;;24.00;62.80;;;;;;5016257;28;85961;-77
2023/05/21 10:20:32;;;;;;;13.88;10.70;;;24.50;60.60;;;;;;5018915;28;86559;-76
2023/05/21 10:22:58;;;;;;;13.48;11.18;;;25.00;60.00;;;;;;5015759;28;88499;-78
2023/05/21 10:25:27;;;;;;;14.82;10.73;;;25.20;58.20;;;;;;5017066;28;87783;-78
2023/05/21 10:27:54;;;;;;;17.52;10.95;;;25.10;58.10;;;;;;5017704;28;85864;-78
2023/05/21 10:30:22;;;;;;;14.27;10.57;;;24.80;59.70;;;;;;5017731;28;86543;-79
2023/05/21 10:32:48;;;;;;;15.07;10.77;;;24.80;60.80;;;;;;5017679;28;86478;-80
2023/05/21 10:35:17;;;;;;;13.60;10.35;;;24.80;58.20;;;;;;5016860;28;86401;-77
2023/05/21 10:37:44;;;;;;;12.45;10.32;;;25.00;60.10;;;;;;5018719;28;86857;-77
2023/05/21 10:40:10;;;;;;;13.55;10.52;;;25.40;57.20;;;;;;5018155;28;86434;-77
2023/05/21 10:42:47;;;;;;;13.38;10.32;;;25.50;57.80;;;;;;5017526;28;86725;-77
2023/05/21 10:45:25;;;;;;;13.98;11.23;;;25.90;58.20;;;;;;5018409;28;86529;-75
2023/05/21 10:48:29;;;;;;;16.25;10.77;;;25.70;57.10;;;;;;5018034;28;86448;-75
2023/05/21 10:51:25;;;;;;;12.82;9.50;;;25.70;58.80;;;;;;5017356;28;87950;-77
2023/05/21 10:54:20;;;;;;;11.73;9.90;;;26.00;55.50;;;;;;5017265;28;86478;-76
2023/05/21 10:56:58;;;;;;;12.27;10.48;;;26.00;57.20;;;;;;5017151;28;86459;-76
2023/05/21 10:59:43;;;;;;;16.50;11.70;;;26.10;57.60;;;;;;5017711;28;85934;-76
2023/05/21 11:02:12;;;;;;;12.23;8.73;;;26.30;58.50;;;;;;5017332;28;87358;-77
2023/05/21 11:04:41;;;;;;;15.63;10.77;;;26.80;57.50;;;;;;5017310;28;87347;-77
2023/05/21 11:07:07;;;;;;;14.60;11.90;;;26.90;55.90;;;;;;5017373;28;86222;-74
2023/05/21 11:09:32;;;;;;;18.05;11.40;;;26.80;55.80;;;;;;5017043;28;86547;-76
2023/05/21 11:11:59;;;;;;;16.25;11.48;;;26.70;56.20;;;;;;5016337;28;88018;-75
2023/05/21 11:14:33;;;;;;;12.30;10.38;;;26.90;56.00;;;;;;5017352;28;86443;-75
2023/05/21 11:17:00;;;;;;;11.68;10.38;;;27.20;56.40;;;;;;5015694;28;86583;-75
2023/05/21 11:19:50;;;;;;;12.40;10.68;;;27.60;55.60;;;;;;5017149;28;86532;-75
2023/05/21 11:22:22;;;;;;;13.15;10.52;;;27.80;55.20;;;;;;5017559;28;87431;-76
2023/05/21 11:24:49;;;;;;;17.85;10.73;;;28.20;54.00;;;;;;5017777;28;91193;-85
2023/05/21 11:27:37;;;;;;;11.75;10.50;;;28.20;54.40;;;;;;5024506;28;86607;-79
2023/05/21 11:30:13;;;;;;;13.50;10.40;;;28.50;53.50;;;;;;5016667;28;86476;-79
2023/05/21 11:33:00;;;;;;;13.68;10.95;;;28.60;51.50;;;;;;5016587;28;87235;-77
2023/05/21 11:35:26;;;;;;;13.32;10.43;;;28.50;53.40;;;;;;5016080;28;86519;-78
2023/05/21 11:37:55;;;;;;;12.45;10.73;;;28.50;52.50;;;;;;5015952;28;86149;-79
2023/05/21 11:40:25;;;;;;;11.98;10.70;;;28.70;52.90;;;;;;5016036;28;86626;-79
2023/05/21 11:42:53;;;;;;;11.50;9.90;;;28.70;52.40;;;;;;5017296;28;87026;-78
2023/05/21 11:45:20;;;;;;;21.85;11.38;;;28.40;53.10;;;;;;5018148;28;87181;-80
2023/05/21 11:47:48;;;;;;;13.43;11.43;;;28.70;52.90;;;;;;5015485;28;86881;-81
2023/05/21 11:50:14;;;;;;;13.07;11.68;;;28.80;52.00;;;;;;5015739;28;85939;-79
2023/05/21 11:52:43;;;;;;;10.48;9.32;;;29.00;50.80;;;;;;5017138;28;88016;-80
2023/05/21 11:55:10;;;;;;;11.50;10.35;;;29.20;52.40;;;;;;5010406;28;89004;-81
2023/05/21 11:57:36;;;;;;;13.15;10.25;;;29.30;50.30;;;;;;5016611;28;86739;-81
2023/05/21 12:00:12;;;;;;;12.77;10.77;;;29.50;51.60;;;;;;5016162;28;85957;-81
2023/05/21 12:02:42;;;;;;;13.77;11.30;;;29.50;50.70;;;;;;5015024;28;90271;-81
2023/05/21 12:05:08;;;;;;;12.32;10.95;;;29.20;50.90;;;;;;5017461;28;86943;-80
2023/05/21 12:07:34;;;;;;;13.50;10.82;;;28.90;52.00;;;;;;5015912;28;86089;-78
2023/05/21 12:10:00;;;;;;;12.88;9.93;;;29.30;52.70;;;;;;5015749;28;86609;-80
2023/05/21 12:12:27;;;;;;;13.55;10.85;;;29.90;52.70;;;;;;5016152;28;90231;-80
2023/05/21 12:14:54;;;;;;;10.15;9.05;;;30.00;51.00;;;;;;5016944;28;86100;-80
2023/05/21 12:17:25;;;;;;;12.73;10.95;;;30.50;51.70;;;;;;5014460;28;86773;-80
2023/05/21 12:19:57;;;;;;;14.00;11.55;;;30.20;46.90;;;;;;5013584;28;86667;-80
2023/05/21 12:22:24;;;;;;;13.30;11.23;;;29.30;48.90;;;;;;5014423;28;91719;-79
2023/05/21 12:24:50;;;;;;;13.98;10.48;;;28.90;51.30;;;;;;5014847;28;89827;-80
2023/05/21 12:27:17;;;;;;;12.85;10.38;;;28.90;51.30;;;;;;5014388;28;87198;-79
2023/05/21 12:29:50;;;;;;;12.95;11.38;;;28.90;53.10;;;;;;5022561;28;86751;-79
2023/05/21 12:32:16;;;;;;;12.50;11.30;;;29.10;50.80;;;;;;5021297;28;90227;-79
2023/05/21 12:34:53;;;;;;;10.57;9.55;;;29.50;52.10;;;;;;5014008;28;88390;-79
2023/05/21 12:37:30;;;;;;;14.65;10.73;;;29.90;50.60;;;;;;5015683;28;86606;-79
2023/05/21 12:39:58;;;;;;;13.95;10.63;;;29.70;50.00;;;;;;5016754;28;85796;-79